sensor_id;sensor_type;location;lat;lon;timestamp;P1;durP1;ratioP1;P2;durP2;ratioP2
62957;SDS011;49056;48.352;10.926;2024-01-27T00:02:14;1.52;;;0.40;;
62957;SDS011;49056;48.352;10.926;2024-01-27T00:07:34;0.80;;;0.50;;
62957;SDS011;49056;48.352;10.926;2024-01-27T00:12:55;0.85;;;0.50;;
62957;SDS011;49056;48.352;10.926;2024-01-27T00:18:15;0.68;;;0.30;;
62957;SDS011;49056;48.352;10.926;2024-01-27T00:23:36;0.22;;;0.22;;
62957;SDS011;49056;48.352;10.926;2024-01-27T00:28:56;0.52;;;0.32;;
62957;SDS011;49056;48.352;10.926;2024-01-27T00:34:17;2.92;;;0.55;;
62957;SDS011;49056;48.352;10.926;2024-01-27T00:39:37;0.30;;;0.20;;
62957;SDS011;49056;48.352;10.926;2024-01-27T00:44:57;0.80;;;0.55;;
62957;SDS011;49056;48.352;10.926;2024-01-27T00:50:18;0.98;;;0.50;;
62957;SDS011;49056;48.352;10.926;2024-01-27T00:55:38;0.93;;;0.22;;
62957;SDS011;49056;48.352;10.926;2024-01-27T01:00:58;0.60;;;0.20;;
62957;SDS011;49056;48.352;10.926;2024-01-27T01:06:19;0.40;;;0.37;;
62957;SDS011;49056;48.352;10.926;2024-01-27T01:11:39;0.68;;;0.30;;
62957;SDS011;49056;48.352;10.926;2024-01-27T01:17:00;0.20;;;0.13;;
62957;SDS011;49056;48.352;10.926;2024-01-27T01:22:20;0.88;;;0.47;;
62957;SDS011;49056;48.352;10.926;2024-01-27T01:27:40;0.45;;;0.25;;
62957;SDS011;49056;48.352;10.926;2024-01-27T01:33:00;0.40;;;0.40;;
62957;SDS011;49056;48.352;10.926;2024-01-27T01:38:21;0.37;;;0.20;;
62957;SDS011;49056;48.352;10.926;2024-01-27T01:43:41;0.75;;;0.30;;
62957;SDS011;49056;48.352;10.926;2024-01-27T01:49:01;1.53;;;0.37;;
62957;SDS011;49056;48.352;10.926;2024-01-27T01:54:22;0.35;;;0.30;;
62957;SDS011;49056;48.352;10.926;2024-01-27T01:59:47;0.32;;;0.30;;
62957;SDS011;49056;48.352;10.926;2024-01-27T02:05:08;0.10;;;0.10;;
62957;SDS011;49056;48.352;10.926;2024-01-27T02:10:30;0.35;;;0.10;;
62957;SDS011;49056;48.352;10.926;2024-01-27T02:16:00;0.93;;;0.20;;
62957;SDS011;49056;48.352;10.926;2024-01-27T02:21:20;2.05;;;0.25;;
62957;SDS011;49056;48.352;10.926;2024-01-27T02:26:41;0.40;;;0.40;;
62957;SDS011;49056;48.352;10.926;2024-01-27T02:32:01;0.55;;;0.32;;
62957;SDS011;49056;48.352;10.926;2024-01-27T02:37:22;0.40;;;0.35;;
62957;SDS011;49056;48.352;10.926;2024-01-27T02:42:42;0.25;;;0.17;;
62957;SDS011;49056;48.352;10.926;2024-01-27T02:48:03;0.22;;;0.20;;
62957;SDS011;49056;48.352;10.926;2024-01-27T02:53:24;0.85;;;0.30;;
62957;SDS011;49056;48.352;10.926;2024-01-27T02:58:44;0.85;;;0.35;;
62957;SDS011;49056;48.352;10.926;2024-01-27T03:04:04;0.82;;;0.37;;
62957;SDS011;49056;48.352;10.926;2024-01-27T03:09:25;0.73;;;0.37;;
62957;SDS011;49056;48.352;10.926;2024-01-27T03:14:45;1.12;;;0.60;;
62957;SDS011;49056;48.352;10.926;2024-01-27T03:20:06;0.32;;;0.20;;
62957;SDS011;49056;48.352;10.926;2024-01-27T03:25:28;0.28;;;0.22;;
62957;SDS011;49056;48.352;10.926;2024-01-27T03:30:48;0.77;;;0.35;;
62957;SDS011;49056;48.352;10.926;2024-01-27T03:36:12;0.60;;;0.20;;
62957;SDS011;49056;48.352;10.926;2024-01-27T03:41:32;0.15;;;0.10;;
62957;SDS011;49056;48.352;10.926;2024-01-27T03:46:53;0.35;;;0.20;;
62957;SDS011;49056;48.352;10.926;2024-01-27T03:52:13;0.90;;;0.43;;
62957;SDS011;49056;48.352;10.926;2024-01-27T03:57:33;0.10;;;0.10;;
62957;SDS011;49056;48.352;10.926;2024-01-27T04:02:53;1.05;;;0.40;;
62957;SDS011;49056;48.352;10.926;2024-01-27T04:08:14;0.90;;;0.40;;
62957;SDS011;49056;48.352;10.926;2024-01-27T04:13:34;0.30;;;0.27;;
62957;SDS011;49056;48.352;10.926;2024-01-27T04:18:55;1.23;;;0.40;;
62957;SDS011;49056;48.352;10.926;2024-01-27T04:24:15;0.55;;;0.20;;
62957;SDS011;49056;48.352;10.926;2024-01-27T04:29:36;0.25;;;0.20;;
62957;SDS011;49056;48.352;10.926;2024-01-27T04:34:56;0.90;;;0.37;;
62957;SDS011;49056;48.352;10.926;2024-01-27T04:40:16;0.28;;;0.20;;
62957;SDS011;49056;48.352;10.926;2024-01-27T04:45:37;0.20;;;0.20;;
62957;SDS011;49056;48.352;10.926;2024-01-27T04:50:57;0.77;;;0.35;;
62957;SDS011;49056;48.352;10.926;2024-01-27T04:56:18;0.32;;;0.20;;
62957;SDS011;49056;48.352;10.926;2024-01-27T05:01:38;0.73;;;0.47;;
62957;SDS011;49056;48.352;10.926;2024-01-27T05:06:59;1.00;;;0.50;;
62957;SDS011;49056;48.352;10.926;2024-01-27T05:12:19;0.60;;;0.27;;
62957;SDS011;49056;48.352;10.926;2024-01-27T05:17:39;0.65;;;0.20;;
62957;SDS011;49056;48.352;10.926;2024-01-27T05:22:59;0.87;;;0.23;;
62957;SDS011;49056;48.352;10.926;2024-01-27T05:28:20;0.22;;;0.22;;
62957;SDS011;49056;48.352;10.926;2024-01-27T05:33:42;0.43;;;0.37;;
62957;SDS011;49056;48.352;10.926;2024-01-27T05:39:02;0.98;;;0.30;;
62957;SDS011;49056;48.352;10.926;2024-01-27T05:44:24;0.43;;;0.15;;
62957;SDS011;49056;48.352;10.926;2024-01-27T05:49:45;0.87;;;0.20;;
62957;SDS011;49056;48.352;10.926;2024-01-27T05:55:05;0.70;;;0.40;;
62957;SDS011;49056;48.352;10.926;2024-01-27T06:00:26;0.90;;;0.30;;
62957;SDS011;49056;48.352;10.926;2024-01-27T06:05:47;0.30;;;0.30;;
62957;SDS011;49056;48.352;10.926;2024-01-27T06:11:07;0.30;;;0.10;;
62957;SDS011;49056;48.352;10.926;2024-01-27T06:16:27;0.68;;;0.28;;
62957;SDS011;49056;48.352;10.926;2024-01-27T06:21:48;0.50;;;0.25;;
62957;SDS011;49056;48.352;10.926;2024-01-27T06:27:08;0.22;;;0.10;;
62957;SDS011;49056;48.352;10.926;2024-01-27T06:32:28;0.57;;;0.20;;
62957;SDS011;49056;48.352;10.926;2024-01-27T06:37:48;0.85;;;0.40;;
62957;SDS011;49056;48.352;10.926;2024-01-27T06:43:11;0.45;;;0.10;;
62957;SDS011;49056;48.352;10.926;2024-01-27T06:48:32;1.77;;;0.43;;
62957;SDS011;49056;48.352;10.926;2024-01-27T06:53:52;1.40;;;0.43;;
62957;SDS011;49056;48.352;10.926;2024-01-27T06:59:12;0.90;;;0.35;;
62957;SDS011;49056;48.352;10.926;2024-01-27T07:04:33;0.43;;;0.35;;
62957;SDS011;49056;48.352;10.926;2024-01-27T07:09:57;0.25;;;0.25;;
62957;SDS011;49056;48.352;10.926;2024-01-27T07:15:18;0.20;;;0.17;;
62957;SDS011;49056;48.352;10.926;2024-01-27T07:20:40;1.73;;;0.20;;
62957;SDS011;49056;48.352;10.926;2024-01-27T07:26:00;0.17;;;0.08;;
62957;SDS011;49056;48.352;10.926;2024-01-27T07:31:23;4.15;;;0.43;;
62957;SDS011;49056;48.352;10.926;2024-01-27T07:36:44;0.30;;;0.20;;
62957;SDS011;49056;48.352;10.926;2024-01-27T07:42:05;0.47;;;0.20;;
62957;SDS011;49056;48.352;10.926;2024-01-27T07:47:25;0.17;;;0.10;;
62957;SDS011;49056;48.352;10.926;2024-01-27T07:52:46;0.50;;;0.20;;
62957;SDS011;49056;48.352;10.926;2024-01-27T07:58:06;0.35;;;0.20;;
62957;SDS011;49056;48.352;10.926;2024-01-27T08:03:26;0.27;;;0.10;;
62957;SDS011;49056;48.352;10.926;2024-01-27T08:08:47;0.55;;;0.30;;
62957;SDS011;49056;48.352;10.926;2024-01-27T08:14:08;0.80;;;0.40;;
62957;SDS011;49056;48.352;10.926;2024-01-27T08:19:28;0.25;;;0.10;;
62957;SDS011;49056;48.352;10.926;2024-01-27T08:24:49;0.73;;;0.28;;
62957;SDS011;49056;48.352;10.926;2024-01-27T08:30:09;0.17;;;0.17;;
62957;SDS011;49056;48.352;10.926;2024-01-27T08:35:30;0.57;;;0.30;;
62957;SDS011;49056;48.352;10.926;2024-01-27T08:40:50;0.62;;;0.22;;
62957;SDS011;49056;48.352;10.926;2024-01-27T08:46:10;0.17;;;0.17;;
62957;SDS011;49056;48.352;10.926;2024-01-27T08:51:33;0.50;;;0.22;;
62957;SDS011;49056;48.352;10.926;2024-01-27T08:56:54;0.62;;;0.40;;
62957;SDS011;49056;48.352;10.926;2024-01-27T09:02:14;0.57;;;0.30;;
62957;SDS011;49056;48.352;10.926;2024-01-27T09:07:35;0.20;;;0.20;;
62957;SDS011;49056;48.352;10.926;2024-01-27T09:12:55;0.68;;;0.30;;
62957;SDS011;49056;48.352;10.926;2024-01-27T09:18:15;0.55;;;0.30;;
62957;SDS011;49056;48.352;10.926;2024-01-27T09:23:37;0.68;;;0.28;;
62957;SDS011;49056;48.352;10.926;2024-01-27T09:28:57;0.37;;;0.20;;
62957;SDS011;49056;48.352;10.926;2024-01-27T09:34:17;1.17;;;0.22;;
62957;SDS011;49056;48.352;10.926;2024-01-27T09:39:37;0.47;;;0.30;;
62957;SDS011;49056;48.352;10.926;2024-01-27T09:44:58;0.25;;;0.20;;
62957;SDS011;49056;48.352;10.926;2024-01-27T09:50:18;0.20;;;0.20;;
62957;SDS011;49056;48.352;10.926;2024-01-27T09:55:39;0.40;;;0.22;;
62957;SDS011;49056;48.352;10.926;2024-01-27T10:01:00;0.43;;;0.10;;
62957;SDS011;49056;48.352;10.926;2024-01-27T10:06:20;0.43;;;0.32;;
62957;SDS011;49056;48.352;10.926;2024-01-27T10:11:43;0.70;;;0.37;;
62957;SDS011;49056;48.352;10.926;2024-01-27T10:17:05;0.55;;;0.40;;
62957;SDS011;49056;48.352;10.926;2024-01-27T10:22:26;0.23;;;0.13;;
62957;SDS011;49056;48.352;10.926;2024-01-27T10:27:46;0.68;;;0.30;;
62957;SDS011;49056;48.352;10.926;2024-01-27T10:33:08;1.55;;;0.43;;
62957;SDS011;49056;48.352;10.926;2024-01-27T10:38:38;1.40;;;0.55;;
62957;SDS011;49056;48.352;10.926;2024-01-27T10:43:58;0.17;;;0.17;;
62957;SDS011;49056;48.352;10.926;2024-01-27T10:49:19;0.30;;;0.20;;
62957;SDS011;49056;48.352;10.926;2024-01-27T10:54:40;0.85;;;0.40;;
62957;SDS011;49056;48.352;10.926;2024-01-27T11:00:02;1.85;;;0.60;;
62957;SDS011;49056;48.352;10.926;2024-01-27T11:05:24;0.62;;;0.20;;
62957;SDS011;49056;48.352;10.926;2024-01-27T11:10:44;0.83;;;0.30;;
62957;SDS011;49056;48.352;10.926;2024-01-27T11:16:05;0.73;;;0.40;;
62957;SDS011;49056;48.352;10.926;2024-01-27T11:21:26;0.82;;;0.40;;
62957;SDS011;49056;48.352;10.926;2024-01-27T11:26:46;0.65;;;0.40;;
62957;SDS011;49056;48.352;10.926;2024-01-27T11:32:07;0.30;;;0.13;;
62957;SDS011;49056;48.352;10.926;2024-01-27T11:37:30;0.43;;;0.30;;
62957;SDS011;49056;48.352;10.926;2024-01-27T11:42:54;0.60;;;0.60;;
62957;SDS011;49056;48.352;10.926;2024-01-27T11:48:15;0.40;;;0.20;;
62957;SDS011;49056;48.352;10.926;2024-01-27T11:53:35;0.70;;;0.40;;
62957;SDS011;49056;48.352;10.926;2024-01-27T11:58:56;0.82;;;0.25;;
62957;SDS011;49056;48.352;10.926;2024-01-27T12:04:17;0.75;;;0.30;;
62957;SDS011;49056;48.352;10.926;2024-01-27T12:09:38;0.85;;;0.30;;
62957;SDS011;49056;48.352;10.926;2024-01-27T12:14:59;1.12;;;0.50;;
62957;SDS011;49056;48.352;10.926;2024-01-27T12:20:21;0.45;;;0.30;;
62957;SDS011;49056;48.352;10.926;2024-01-27T12:25:42;0.30;;;0.22;;
62957;SDS011;49056;48.352;10.926;2024-01-27T12:31:02;4.00;;;0.40;;
62957;SDS011;49056;48.352;10.926;2024-01-27T12:36:24;1.33;;;0.45;;
62957;SDS011;49056;48.352;10.926;2024-01-27T12:41:45;1.08;;;0.43;;
62957;SDS011;49056;48.352;10.926;2024-01-27T12:47:05;10.50;;;5.53;;
62957;SDS011;49056;48.352;10.926;2024-01-27T12:52:25;17.90;;;7.62;;
62957;SDS011;49056;48.352;10.926;2024-01-27T12:57:46;10.38;;;1.10;;
62957;SDS011;49056;48.352;10.926;2024-01-27T13:03:07;6.28;;;0.93;;
62957;SDS011;49056;48.352;10.926;2024-01-27T13:08:27;1.17;;;0.62;;
62957;SDS011;49056;48.352;10.926;2024-01-27T13:13:48;1.08;;;0.60;;
62957;SDS011;49056;48.352;10.926;2024-01-27T13:19:08;1.95;;;0.55;;
62957;SDS011;49056;48.352;10.926;2024-01-27T13:24:28;1.23;;;0.63;;
62957;SDS011;49056;48.352;10.926;2024-01-27T13:29:49;3.00;;;0.80;;
62957;SDS011;49056;48.352;10.926;2024-01-27T13:35:09;1.48;;;0.50;;
62957;SDS011;49056;48.352;10.926;2024-01-27T13:40:30;1.35;;;0.62;;
62957;SDS011;49056;48.352;10.926;2024-01-27T13:45:50;0.32;;;0.28;;
62957;SDS011;49056;48.352;10.926;2024-01-27T13:51:11;0.52;;;0.30;;
62957;SDS011;49056;48.352;10.926;2024-01-27T13:56:31;1.10;;;0.57;;
62957;SDS011;49056;48.352;10.926;2024-01-27T14:01:53;1.87;;;0.50;;
62957;SDS011;49056;48.352;10.926;2024-01-27T14:07:13;1.12;;;0.50;;
62957;SDS011;49056;48.352;10.926;2024-01-27T14:12:33;5.83;;;1.27;;
62957;SDS011;49056;48.352;10.926;2024-01-27T14:17:54;1.23;;;0.57;;
62957;SDS011;49056;48.352;10.926;2024-01-27T14:23:15;0.40;;;0.30;;
62957;SDS011;49056;48.352;10.926;2024-01-27T14:28:35;0.93;;;0.50;;
62957;SDS011;49056;48.352;10.926;2024-01-27T14:33:56;0.60;;;0.28;;
62957;SDS011;49056;48.352;10.926;2024-01-27T14:39:16;0.73;;;0.30;;
62957;SDS011;49056;48.352;10.926;2024-01-27T14:44:36;0.73;;;0.35;;
62957;SDS011;49056;48.352;10.926;2024-01-27T14:49:57;0.83;;;0.53;;
62957;SDS011;49056;48.352;10.926;2024-01-27T14:55:17;1.62;;;0.80;;
62957;SDS011;49056;48.352;10.926;2024-01-27T15:00:37;1.02;;;0.55;;
62957;SDS011;49056;48.352;10.926;2024-01-27T15:06:00;1.25;;;0.43;;
62957;SDS011;49056;48.352;10.926;2024-01-27T15:11:21;2.17;;;0.80;;
62957;SDS011;49056;48.352;10.926;2024-01-27T15:16:42;1.08;;;0.40;;
62957;SDS011;49056;48.352;10.926;2024-01-27T15:22:02;0.20;;;0.10;;
62957;SDS011;49056;48.352;10.926;2024-01-27T15:27:22;1.43;;;0.50;;
62957;SDS011;49056;48.352;10.926;2024-01-27T15:32:47;0.47;;;0.32;;
62957;SDS011;49056;48.352;10.926;2024-01-27T15:38:07;0.35;;;0.20;;
62957;SDS011;49056;48.352;10.926;2024-01-27T15:43:28;0.73;;;0.30;;
62957;SDS011;49056;48.352;10.926;2024-01-27T15:48:48;0.32;;;0.20;;
62957;SDS011;49056;48.352;10.926;2024-01-27T15:54:09;0.88;;;0.30;;
62957;SDS011;49056;48.352;10.926;2024-01-27T15:59:29;1.05;;;0.37;;
62957;SDS011;49056;48.352;10.926;2024-01-27T16:04:49;1.00;;;0.30;;
62957;SDS011;49056;48.352;10.926;2024-01-27T16:10:09;0.75;;;0.40;;
62957;SDS011;49056;48.352;10.926;2024-01-27T16:15:30;0.73;;;0.32;;
62957;SDS011;49056;48.352;10.926;2024-01-27T16:20:50;0.53;;;0.27;;
62957;SDS011;49056;48.352;10.926;2024-01-27T16:26:12;0.93;;;0.60;;
62957;SDS011;49056;48.352;10.926;2024-01-27T16:31:33;0.83;;;0.50;;
62957;SDS011;49056;48.352;10.926;2024-01-27T16:36:53;1.42;;;0.30;;
62957;SDS011;49056;48.352;10.926;2024-01-27T16:42:14;1.05;;;0.50;;
62957;SDS011;49056;48.352;10.926;2024-01-27T16:47:35;1.60;;;1.05;;
62957;SDS011;49056;48.352;10.926;2024-01-27T16:52:55;0.52;;;0.40;;
62957;SDS011;49056;48.352;10.926;2024-01-27T16:58:16;1.13;;;0.17;;
62957;SDS011;49056;48.352;10.926;2024-01-27T17:03:36;0.47;;;0.28;;
62957;SDS011;49056;48.352;10.926;2024-01-27T17:08:57;0.50;;;0.40;;
62957;SDS011;49056;48.352;10.926;2024-01-27T17:14:17;1.02;;;0.50;;
62957;SDS011;49056;48.352;10.926;2024-01-27T17:19:38;0.40;;;0.35;;
62957;SDS011;49056;48.352;10.926;2024-01-27T17:24:58;0.73;;;0.45;;
62957;SDS011;49056;48.352;10.926;2024-01-27T17:30:21;1.95;;;0.70;;
62957;SDS011;49056;48.352;10.926;2024-01-27T17:35:42;0.40;;;0.40;;
62957;SDS011;49056;48.352;10.926;2024-01-27T17:41:02;0.57;;;0.40;;
62957;SDS011;49056;48.352;10.926;2024-01-27T17:46:23;1.67;;;0.55;;
62957;SDS011;49056;48.352;10.926;2024-01-27T17:51:46;1.43;;;0.57;;
62957;SDS011;49056;48.352;10.926;2024-01-27T17:57:09;0.43;;;0.30;;
62957;SDS011;49056;48.352;10.926;2024-01-27T18:02:29;2.22;;;0.85;;
62957;SDS011;49056;48.352;10.926;2024-01-27T18:07:50;0.65;;;0.35;;
62957;SDS011;49056;48.352;10.926;2024-01-27T18:13:10;1.70;;;0.90;;
62957;SDS011;49056;48.352;10.926;2024-01-27T18:18:31;1.15;;;0.50;;
62957;SDS011;49056;48.352;10.926;2024-01-27T18:23:52;0.98;;;0.70;;
62957;SDS011;49056;48.352;10.926;2024-01-27T18:29:12;1.45;;;0.82;;
62957;SDS011;49056;48.352;10.926;2024-01-27T18:34:32;0.82;;;0.45;;
62957;SDS011;49056;48.352;10.926;2024-01-27T18:39:53;1.08;;;0.70;;
62957;SDS011;49056;48.352;10.926;2024-01-27T18:45:13;1.77;;;0.80;;
62957;SDS011;49056;48.352;10.926;2024-01-27T18:50:33;1.73;;;0.80;;
62957;SDS011;49056;48.352;10.926;2024-01-27T18:55:54;2.65;;;0.90;;
62957;SDS011;49056;48.352;10.926;2024-01-27T19:01:14;2.95;;;0.90;;
62957;SDS011;49056;48.352;10.926;2024-01-27T19:06:34;1.80;;;0.95;;
62957;SDS011;49056;48.352;10.926;2024-01-27T19:11:56;2.45;;;1.40;;
62957;SDS011;49056;48.352;10.926;2024-01-27T19:17:16;2.28;;;1.00;;
62957;SDS011;49056;48.352;10.926;2024-01-27T19:22:37;2.10;;;1.20;;
62957;SDS011;49056;48.352;10.926;2024-01-27T19:27:57;2.60;;;1.10;;
62957;SDS011;49056;48.352;10.926;2024-01-27T19:33:18;1.98;;;0.95;;
62957;SDS011;49056;48.352;10.926;2024-01-27T19:38:39;1.58;;;0.80;;
62957;SDS011;49056;48.352;10.926;2024-01-27T19:44:01;2.03;;;0.88;;
62957;SDS011;49056;48.352;10.926;2024-01-27T19:49:22;1.53;;;0.93;;
62957;SDS011;49056;48.352;10.926;2024-01-27T19:54:42;1.50;;;0.90;;
62957;SDS011;49056;48.352;10.926;2024-01-27T20:00:03;1.60;;;1.20;;
62957;SDS011;49056;48.352;10.926;2024-01-27T20:05:23;1.52;;;0.90;;
62957;SDS011;49056;48.352;10.926;2024-01-27T20:10:44;1.65;;;0.90;;
62957;SDS011;49056;48.352;10.926;2024-01-27T20:16:04;3.05;;;1.17;;
62957;SDS011;49056;48.352;10.926;2024-01-27T20:21:27;1.50;;;1.00;;
62957;SDS011;49056;48.352;10.926;2024-01-27T20:26:47;3.78;;;1.33;;
62957;SDS011;49056;48.352;10.926;2024-01-27T20:32:08;2.55;;;1.23;;
62957;SDS011;49056;48.352;10.926;2024-01-27T20:37:28;2.85;;;1.10;;
62957;SDS011;49056;48.352;10.926;2024-01-27T20:42:49;2.35;;;1.60;;
62957;SDS011;49056;48.352;10.926;2024-01-27T20:48:09;3.42;;;1.52;;
62957;SDS011;49056;48.352;10.926;2024-01-27T20:53:33;1.92;;;0.95;;
62957;SDS011;49056;48.352;10.926;2024-01-27T20:58:53;1.17;;;0.70;;
62957;SDS011;49056;48.352;10.926;2024-01-27T21:04:14;1.20;;;0.93;;
62957;SDS011;49056;48.352;10.926;2024-01-27T21:09:35;1.00;;;0.90;;
62957;SDS011;49056;48.352;10.926;2024-01-27T21:14:55;3.17;;;1.75;;
62957;SDS011;49056;48.352;10.926;2024-01-27T21:20:16;3.07;;;1.30;;
62957;SDS011;49056;48.352;10.926;2024-01-27T21:25:36;2.20;;;0.77;;
62957;SDS011;49056;48.352;10.926;2024-01-27T21:30:56;2.37;;;0.98;;
62957;SDS011;49056;48.352;10.926;2024-01-27T21:36:16;1.62;;;0.52;;
62957;SDS011;49056;48.352;10.926;2024-01-27T21:41:37;2.42;;;1.00;;
62957;SDS011;49056;48.352;10.926;2024-01-27T21:46:57;2.15;;;0.70;;
62957;SDS011;49056;48.352;10.926;2024-01-27T21:52:17;2.33;;;0.98;;
62957;SDS011;49056;48.352;10.926;2024-01-27T21:57:37;2.30;;;0.95;;
62957;SDS011;49056;48.352;10.926;2024-01-27T22:02:58;2.43;;;0.90;;
62957;SDS011;49056;48.352;10.926;2024-01-27T22:08:18;2.60;;;1.12;;
62957;SDS011;49056;48.352;10.926;2024-01-27T22:13:38;1.75;;;1.17;;
62957;SDS011;49056;48.352;10.926;2024-01-27T22:18:59;1.80;;;0.95;;
62957;SDS011;49056;48.352;10.926;2024-01-27T22:24:20;2.57;;;1.07;;
62957;SDS011;49056;48.352;10.926;2024-01-27T22:29:40;2.37;;;1.02;;
62957;SDS011;49056;48.352;10.926;2024-01-27T22:35:01;2.70;;;1.10;;
62957;SDS011;49056;48.352;10.926;2024-01-27T22:40:21;1.08;;;0.70;;
62957;SDS011;49056;48.352;10.926;2024-01-27T22:45:41;1.43;;;1.10;;
62957;SDS011;49056;48.352;10.926;2024-01-27T22:51:01;1.73;;;1.00;;
62957;SDS011;49056;48.352;10.926;2024-01-27T22:56:22;1.65;;;1.05;;
62957;SDS011;49056;48.352;10.926;2024-01-27T23:01:42;1.70;;;1.05;;
62957;SDS011;49056;48.352;10.926;2024-01-27T23:07:03;2.83;;;0.90;;
62957;SDS011;49056;48.352;10.926;2024-01-27T23:12:23;1.77;;;1.10;;
62957;SDS011;49056;48.352;10.926;2024-01-27T23:17:43;1.80;;;0.90;;
62957;SDS011;49056;48.352;10.926;2024-01-27T23:23:04;1.13;;;0.60;;
62957;SDS011;49056;48.352;10.926;2024-01-27T23:28:24;2.03;;;0.90;;
62957;SDS011;49056;48.352;10.926;2024-01-27T23:33:44;1.53;;;1.27;;
62957;SDS011;49056;48.352;10.926;2024-01-27T23:39:05;1.85;;;1.02;;
62957;SDS011;49056;48.352;10.926;2024-01-27T23:44:26;2.70;;;0.90;;
62957;SDS011;49056;48.352;10.926;2024-01-27T23:49:46;1.75;;;0.85;;
62957;SDS011;49056;48.352;10.926;2024-01-27T23:55:06;1.50;;;0.85;;
